Time;durP1;ratioP1;P1;durP2;ratioP2;P2;SDS_P1;SDS_P2;PMS_P1;PMS_P2;Temp;Humidity;BMP_temperature;BMP_pressure;BME280_temperature;BME280_humidity;BME280_pressure;Samples;Min_cycle;Max_cycle;Signal;HPM_P1;HPM_P2
2023/12/21 00:01:56;;;;;;;;;;;;;;;;;;5079908;28;19932;-81
2023/12/21 00:04:22;;;;;;;;;;;;;;;;;;5063526;28;19967;-82
2023/12/21 00:06:49;;;;;;;;;;;;;;;;;;5070346;28;20298;-81
2023/12/21 00:09:15;;;;;;;;;;;;;;;;;;5073836;28;20361;-79
2023/12/21 00:11:42;;;;;;;;;;;;;;;;;;5071012;28;19928;-81
2023/12/21 00:14:10;;;;;;;;;;;;;;;;;;5068428;28;19929;-82
2023/12/21 00:16:36;;;;;;;;;;;;;;;;;;5071087;28;20369;-79
2023/12/21 00:19:03;;;;;;;;;;;;;;;;;;5082019;28;20311;-79
2023/12/21 00:21:29;;;;;;;;;;;;;;;;;;5070633;28;19936;-79
2023/12/21 00:23:56;;;;;;;;;;;;;;;;;;5071827;28;19977;-79
2023/12/21 00:26:22;;;;;;;;;;;;;;;;;;5069165;28;19955;-80
2023/12/21 00:28:48;;;;;;;;;;;;;;;;;;5077524;28;19929;-82
2023/12/21 00:31:15;;;;;;;;;;;;;;;;;;5074548;28;19932;-79
2023/12/21 00:33:41;;;;;;;;;;;;;;;;;;5052501;28;20389;-78
2023/12/21 00:36:08;;;;;;;;;;;;;;;;;;5064727;28;19960;-82
2023/12/21 00:38:34;;;;;;;;;;;;;;;;;;5074832;28;19924;-80
2023/12/21 00:41:01;;;;;;;;;;;;;;;;;;5069078;28;19924;-81
2023/12/21 00:43:27;;;;;;;;;;;;;;;;;;5079859;28;19931;-80
2023/12/21 00:45:54;;;;;;;;;;;;;;;;;;5068630;28;19932;-80
2023/12/21 00:48:20;;;;;;;;;;;;;;;;;;5083128;28;19948;-78
2023/12/21 00:50:47;;;;;;;;;;;;;;;;;;5067515;28;20027;-82
2023/12/21 00:53:13;;;;;;;;;;;;;;;;;;5076564;28;20246;-78
2023/12/21 00:55:39;;;;;;;;;;;;;;;;;;5062066;28;19925;-80
2023/12/21 00:58:06;;;;;;;;;;;;;;;;;;5070276;28;20301;-81
2023/12/21 01:00:33;;;;;;;;;;;;;;;;;;5067170;28;19950;-79
2023/12/21 01:02:59;;;;;;;;;;;;;;;;;;5060708;28;20278;-81
2023/12/21 01:05:26;;;;;;;;;;;;;;;;;;5072996;28;20364;-80
2023/12/21 01:07:52;;;;;;;;;;;;;;;;;;5077154;28;20347;-77
2023/12/21 01:10:19;;;;;;;;;;;;;;;;;;5068370;28;20373;-80
2023/12/21 01:12:45;;;;;;;;;;;;;;;;;;5052364;28;19925;-79
2023/12/21 01:15:11;;;;;;;;;;;;;;;;;;5076514;28;19928;-80
2023/12/21 01:17:38;;;;;;;;;;;;;;;;;;5066064;28;19928;-78
2023/12/21 01:20:04;;;;;;;;;;;;;;;;;;5064668;28;20008;-80
2023/12/21 01:22:31;;;;;;;;;;;;;;;;;;5067957;28;19929;-81
2023/12/21 01:24:58;;;;;;;;;;;;;;;;;;5079512;28;19974;-80
2023/12/21 01:27:24;;;;;;;;;;;;;;;;;;5076207;28;20296;-81
2023/12/21 01:29:57;;;;;;;;;;;;;;;;;;5077440;28;19935;-79
2023/12/21 01:32:23;;;;;;;;;;;;;;;;;;5060674;28;19929;-79
2023/12/21 01:34:50;;;;;;;;;;;;;;;;;;5075581;28;19929;-79
2023/12/21 01:37:16;;;;;;;;;;;;;;;;;;5070916;28;19924;-81
2023/12/21 01:39:43;;;;;;;;;;;;;;;;;;5070049;28;19960;-82
2023/12/21 01:42:10;;;;;;;;;;;;;;;;;;5078021;28;19924;-80
2023/12/21 01:44:36;;;;;;;;;;;;;;;;;;5062511;28;19935;-79
2023/12/21 01:47:03;;;;;;;;;;;;;;;;;;5059776;28;19925;-80
2023/12/21 01:49:30;;;;;;;;;;;;;;;;;;5060376;28;19925;-79
2023/12/21 01:51:57;;;;;;;;;;;;;;;;;;5066526;28;19982;-78
2023/12/21 01:54:23;;;;;;;;;;;;;;;;;;5075766;28;19933;-80
2023/12/21 01:56:50;;;;;;;;;;;;;;;;;;5073332;28;19960;-80
2023/12/21 01:59:16;;;;;;;;;;;;;;;;;;5070762;28;19951;-79
2023/12/21 02:01:43;;;;;;;;;;;;;;;;;;5067549;28;19971;-81
2023/12/21 02:04:09;;;;;;;;;;;;;;;;;;5052680;28;19932;-80
2023/12/21 02:06:36;;;;;;;;;;;;;;;;;;5068084;28;19947;-79
2023/12/21 02:09:02;;;;;;;;;;;;;;;;;;5077035;28;19935;-80
2023/12/21 02:11:29;;;;;;;;;;;;;;;;;;5063759;28;19986;-81
2023/12/21 02:13:55;;;;;;;;;;;;;;;;;;5077961;28;19932;-80
2023/12/21 02:16:21;;;;;;;;;;;;;;;;;;5071507;28;19935;-80
2023/12/21 02:18:49;;;;;;;;;;;;;;;;;;5057885;28;19979;-78
2023/12/21 02:21:16;;;;;;;;;;;;;;;;;;5067369;28;19925;-79
2023/12/21 02:23:42;;;;;;;;;;;;;;;;;;5072200;28;20423;-79
2023/12/21 02:26:09;;;;;;;;;;;;;;;;;;5056423;28;19975;-79
2023/12/21 02:28:35;;;;;;;;;;;;;;;;;;5065383;28;20316;-80
2023/12/21 02:31:02;;;;;;;;;;;;;;;;;;5070924;28;19928;-78
2023/12/21 02:33:28;;;;;;;;;;;;;;;;;;5061426;28;19925;-77
2023/12/21 02:35:55;;;;;;;;;;;;;;;;;;5070324;28;19932;-79
2023/12/21 02:38:23;;;;;;;;;;;;;;;;;;5063562;28;20278;-80
2023/12/21 02:40:50;;;;;;;;;;;;;;;;;;5071115;28;19971;-79
2023/12/21 02:43:16;;;;;;;;;;;;;;;;;;5055955;28;19925;-80
2023/12/21 02:45:43;;;;;;;;;;;;;;;;;;5067678;28;19929;-79
2023/12/21 02:48:10;;;;;;;;;;;;;;;;;;5080694;28;19924;-79
2023/12/21 02:50:36;;;;;;;;;;;;;;;;;;5073337;28;20381;-81
2023/12/21 02:53:03;;;;;;;;;;;;;;;;;;5064402;28;19924;-78
2023/12/21 02:55:30;;;;;;;;;;;;;;;;;;5071339;28;19963;-78
2023/12/21 02:57:57;;;;;;;;;;;;;;;;;;5074141;28;19924;-80
2023/12/21 03:00:24;;;;;;;;;;;;;;;;;;5075996;28;19924;-78
2023/12/21 03:02:50;;;;;;;;;;;;;;;;;;5078056;28;20369;-79
2023/12/21 03:05:17;;;;;;;;;;;;;;;;;;5074119;28;19982;-80
2023/12/21 03:07:44;;;;;;;;;;;;;;;;;;5071912;28;19928;-79
2023/12/21 03:10:10;;;;;;;;;;;;;;;;;;5065147;28;19932;-81
2023/12/21 03:12:37;;;;;;;;;;;;;;;;;;5057527;28;19924;-81
2023/12/21 03:15:03;;;;;;;;;;;;;;;;;;5056995;28;19947;-82
2023/12/21 03:17:30;;;;;;;;;;;;;;;;;;5064353;28;19973;-81
2023/12/21 03:19:57;;;;;;;;;;;;;;;;;;5072102;28;19925;-80
2023/12/21 03:22:24;;;;;;;;;;;;;;;;;;5063383;28;20325;-81
2023/12/21 03:24:50;;;;;;;;;;;;;;;;;;5074759;28;20365;-80
2023/12/21 03:27:18;;;;;;;;;;;;;;;;;;5056403;28;19932;-80
2023/12/21 03:29:44;;;;;;;;;;;;;;;;;;5058245;28;19924;-78
2023/12/21 03:32:11;;;;;;;;;;;;;;;;;;5067995;28;19924;-80
2023/12/21 03:34:37;;;;;;;;;;;;;;;;;;5073141;28;20036;-79
2023/12/21 03:37:04;;;;;;;;;;;;;;;;;;5073649;28;19925;-80
2023/12/21 03:39:30;;;;;;;;;;;;;;;;;;5062761;28;19932;-80
2023/12/21 03:41:57;;;;;;;;;;;;;;;;;;5073958;28;19963;-80
2023/12/21 03:44:23;;;;;;;;;;;;;;;;;;5069452;28;19925;-80
2023/12/21 03:46:50;;;;;;;;;;;;;;;;;;5073967;28;20289;-80
2023/12/21 03:49:16;;;;;;;;;;;;;;;;;;5053507;28;19924;-80
2023/12/21 03:51:43;;;;;;;;;;;;;;;;;;5065996;28;19933;-80
2023/12/21 03:54:09;;;;;;;;;;;;;;;;;;5072100;28;19933;-80
2023/12/21 03:56:35;;;;;;;;;;;;;;;;;;5072488;28;19994;-79
2023/12/21 03:59:02;;;;;;;;;;;;;;;;;;5064417;28;19956;-80
2023/12/21 04:01:29;;;;;;;;;;;;;;;;;;5067043;28;19925;-81
2023/12/21 04:03:56;;;;;;;;;;;;;;;;;;5071797;28;19963;-81
2023/12/21 04:06:23;;;;;;;;;;;;;;;;;;5055353;28;19929;-77
2023/12/21 04:08:51;;;;;;;;;;;;;;;;;;5065970;28;20282;-79
2023/12/21 04:11:17;;;;;;;;;;;;;;;;;;5051386;28;19953;-82
2023/12/21 04:13:43;;;;;;;;;;;;;;;;;;5047164;28;20333;-79
2023/12/21 04:16:10;;;;;;;;;;;;;;;;;;5072762;28;20012;-81
2023/12/21 04:18:37;;;;;;;;;;;;;;;;;;5074523;28;19947;-78
2023/12/21 04:21:03;;;;;;;;;;;;;;;;;;5069652;28;19925;-80
2023/12/21 04:23:30;;;;;;;;;;;;;;;;;;5059062;28;20297;-80
2023/12/21 04:25:56;;;;;;;;;;;;;;;;;;5072628;28;19974;-81
2023/12/21 04:28:23;;;;;;;;;;;;;;;;;;5065595;28;19964;-78
2023/12/21 04:30:49;;;;;;;;;;;;;;;;;;5054867;28;19978;-78
2023/12/21 04:33:16;;;;;;;;;;;;;;;;;;5059943;28;19971;-80
2023/12/21 04:35:42;;;;;;;;;;;;;;;;;;5066543;28;19929;-80
2023/12/21 04:38:08;;;;;;;;;;;;;;;;;;5053965;28;19956;-81
2023/12/21 04:40:35;;;;;;;;;;;;;;;;;;5069715;28;19925;-78
2023/12/21 04:43:02;;;;;;;;;;;;;;;;;;5056832;28;20387;-78
2023/12/21 04:45:29;;;;;;;;;;;;;;;;;;5065469;28;19928;-80
2023/12/21 04:47:55;;;;;;;;;;;;;;;;;;5062478;28;19928;-78
2023/12/21 04:50:22;;;;;;;;;;;;;;;;;;5047482;28;19959;-83
2023/12/21 04:52:49;;;;;;;;;;;;;;;;;;5061854;28;19924;-79
2023/12/21 04:55:16;;;;;;;;;;;;;;;;;;5073946;28;19947;-81
2023/12/21 04:57:43;;;;;;;;;;;;;;;;;;5074112;28;19939;-80
2023/12/21 05:00:09;;;;;;;;;;;;;;;;;;5066268;28;19924;-80
2023/12/21 05:02:35;;;;;;;;;;;;;;;;;;5070516;28;19959;-78
2023/12/21 05:05:02;;;;;;;;;;;;;;;;;;5059728;28;19958;-81
2023/12/21 05:07:29;;;;;;;;;;;;;;;;;;5067437;28;19960;-81
2023/12/21 05:09:59;;;;;;;;;;;;;;;;;;5068357;28;19924;-81
2023/12/21 05:12:26;;;;;;;;;;;;;;;;;;5073729;28;19925;-84
2023/12/21 05:14:53;;;;;;;;;;;;;;;;;;5076045;28;19929;-79
2023/12/21 05:17:20;;;;;;;;;;;;;;;;;;5078560;28;19931;-78
2023/12/21 05:19:49;;;;;;;;;;;;;;;;;;5064670;28;19925;-82
2023/12/21 05:22:15;;;;;;;;;;;;;;;;;;5075156;28;19929;-81
2023/12/21 05:24:41;;;;;;;;;;;;;;;;;;5065458;28;19947;-79
2023/12/21 05:27:08;;;;;;;;;;;;;;;;;;5054583;28;19951;-82
2023/12/21 05:29:34;;;;;;;;;;;;;;;;;;5061063;28;19966;-81
2023/12/21 05:32:01;;;;;;;;;;;;;;;;;;5074445;28;19928;-80
2023/12/21 05:34:27;;;;;;;;;;;;;;;;;;5072288;28;19947;-84
2023/12/21 05:36:54;;;;;;;;;;;;;;;;;;5074767;28;19924;-82
2023/12/21 05:39:21;;;;;;;;;;;;;;;;;;5087022;28;19933;-82
2023/12/21 05:41:47;;;;;;;;;;;;;;;;;;5082387;28;19929;-81
2023/12/21 05:44:14;;;;;;;;;;;;;;;;;;5057613;28;19964;-82
2023/12/21 05:46:42;;;;;;;;;;;;;;;;;;5080596;28;19971;-81
2023/12/21 05:49:09;;;;;;;;;;;;;;;;;;5081780;28;19925;-78
2023/12/21 05:51:35;;;;;;;;;;;;;;;;;;5068116;28;20438;-81
2023/12/21 05:54:02;;;;;;;;;;;;;;;;;;5061117;28;19950;-81
2023/12/21 05:56:29;;;;;;;;;;;;;;;;;;5075879;28;19932;-81
2023/12/21 05:58:55;;;;;;;;;;;;;;;;;;5069021;28;19924;-81
2023/12/21 06:01:22;;;;;;;;;;;;;;;;;;5074179;28;19925;-78
2023/12/21 06:03:48;;;;;;;;;;;;;;;;;;5071807;28;20468;-82
2023/12/21 06:06:15;;;;;;;;;;;;;;;;;;5067259;28;19985;-81
2023/12/21 06:08:42;;;;;;;;;;;;;;;;;;5063936;28;20139;-78
2023/12/21 06:11:08;;;;;;;;;;;;;;;;;;5070186;28;19925;-80
2023/12/21 06:13:35;;;;;;;;;;;;;;;;;;5064175;28;19925;-81
2023/12/21 06:16:01;;;;;;;;;;;;;;;;;;5069369;28;20451;-81
2023/12/21 06:18:28;;;;;;;;;;;;;;;;;;5064047;28;19925;-82
2023/12/21 06:20:54;;;;;;;;;;;;;;;;;;5065130;28;19947;-79
2023/12/21 06:23:21;;;;;;;;;;;;;;;;;;5075024;28;19925;-80
2023/12/21 06:25:47;;;;;;;;;;;;;;;;;;5066008;28;19959;-82
2023/12/21 06:28:14;;;;;;;;;;;;;;;;;;5064859;28;19929;-81
2023/12/21 06:30:40;;;;;;;;;;;;;;;;;;5070922;28;19929;-81
2023/12/21 06:33:07;;;;;;;;;;;;;;;;;;5055894;28;19925;-80
2023/12/21 06:35:34;;;;;;;;;;;;;;;;;;5065061;28;20027;-80
2023/12/21 06:38:00;;;;;;;;;;;;;;;;;;5064931;28;19929;-81
2023/12/21 06:40:27;;;;;;;;;;;;;;;;;;5070178;28;19931;-81
2023/12/21 06:42:53;;;;;;;;;;;;;;;;;;5056313;28;19933;-79
2023/12/21 06:45:20;;;;;;;;;;;;;;;;;;5073175;28;19964;-80
2023/12/21 06:47:47;;;;;;;;;;;;;;;;;;5076585;28;19924;-81
2023/12/21 06:50:13;;;;;;;;;;;;;;;;;;5073819;28;19935;-80
2023/12/21 06:52:42;;;;;;;;;;;;;;;;;;5070340;28;19925;-79
2023/12/21 06:55:09;;;;;;;;;;;;;;;;;;5069335;28;19935;-80
2023/12/21 06:57:35;;;;;;;;;;;;;;;;;;5075316;28;19928;-80
2023/12/21 07:00:04;;;;;;;;;;;;;;;;;;5069589;28;19929;-80
2023/12/21 07:02:30;;;;;;;;;;;;;;;;;;5055663;28;19933;-82
2023/12/21 07:04:58;;;;;;;;;;;;;;;;;;5062646;28;20439;-80
2023/12/21 07:07:24;;;;;;;;;;;;;;;;;;5060260;28;20427;-81
2023/12/21 07:09:51;;;;;;;;;;;;;;;;;;5066678;28;19930;-80
2023/12/21 07:12:19;;;;;;;;;;;;;;;;;;5069572;28;20389;-79
2023/12/21 07:14:46;;;;;;;;;;;;;;;;;;5064710;28;19924;-80
2023/12/21 07:17:34;;;;;;;;;;;;;;;;;;5124374;27;19950;-82
2023/12/21 07:20:01;;;;;;;;;;;;;;;;;;5121782;27;19938;-80
2023/12/21 07:22:27;;;;;;;;;;;;;;;;;;5114916;28;19924;-81
2023/12/21 07:24:54;;;;;;;;;;;;;;;;;;5117551;28;19931;-81
2023/12/21 07:27:20;;;;;;;;;;;;;;;;;;5116964;28;19974;-80
2023/12/21 07:29:49;;;;;;;;;;;;;;;;;;5111230;28;20018;-82
2023/12/21 07:32:16;;;;;;;;;;;;;;;;;;5097835;28;19923;-80
2023/12/21 07:34:42;;;;;;;;;;;;;;;;;;5118699;28;19924;-81
2023/12/21 07:37:09;;;;;;;;;;;;;;;;;;5117487;28;19928;-81
2023/12/21 07:39:35;;;;;;;;;;;;;;;;;;5118478;28;20030;-79
2023/12/21 07:42:02;;;;;;;;;;;;;;;;;;5120759;28;19924;-80
2023/12/21 07:44:28;;;;;;;;;;;;;;;;;;5126918;28;19981;-79
2023/12/21 07:46:54;;;;;;;;;;;;;;;;;;5111679;28;20433;-80
2023/12/21 07:49:21;;;;;;;;;;;;;;;;;;5126643;28;19996;-81
2023/12/21 07:51:47;;;;;;;;;;;;;;;;;;5120342;27;19997;-77
2023/12/21 07:54:14;;;;;;;;;;;;;;;;;;5122407;28;19973;-79
2023/12/21 07:56:40;;;;;;;;;;;;;;;;;;5125566;28;19927;-79
2023/12/21 07:59:07;;;;;;;;;;;;;;;;;;5108672;28;19911;-77
2023/12/21 08:01:33;;;;;;;;;;;;;;;;;;5120034;28;19920;-78
2023/12/21 08:04:00;;;;;;;;;;;;;;;;;;5124381;27;20031;-80
2023/12/21 08:06:26;;;;;;;;;;;;;;;;;;5099545;28;19924;-78
2023/12/21 08:08:53;;;;;;;;;;;;;;;;;;5117664;28;19924;-81
2023/12/21 08:11:23;;;;;;;;;;;;;;;;;;5119464;28;20329;-79
2023/12/21 08:13:51;;;;;;;;;;;;;;;;;;5121586;28;20367;-80
2023/12/21 08:16:17;;;;;;;;;;;;;;;;;;5117884;28;19955;-78
2023/12/21 08:18:44;;;;;;;;;;;;;;;;;;5116670;28;19924;-78
2023/12/21 08:21:10;;;;;;;;;;;;;;;;;;5099395;28;19928;-80
2023/12/21 08:23:37;;;;;;;;;;;;;;;;;;5097448;28;19928;-79
2023/12/21 08:26:05;;;;;;;;;;;;;;;;;;5112372;28;19924;-79
2023/12/21 08:28:32;;;;;;;;;;;;;;;;;;5087330;28;20083;-78
2023/12/21 08:31:00;;;;;;;;;;;;;;;;;;5109849;28;20027;-78
2023/12/21 08:33:26;;;;;;;;;;;;;;;;;;5085889;28;19931;-79
2023/12/21 08:35:53;;;;;;;;;;;;;;;;;;5108086;28;19924;-76
2023/12/21 08:38:20;;;;;;;;;;;;;;;;;;5114028;28;19931;-77
2023/12/21 08:40:47;;;;;;;;;;;;;;;;;;5100626;28;19977;-77
2023/12/21 08:43:14;;;;;;;;;;;;;;;;;;5108690;28;19923;-76
2023/12/21 08:45:40;;;;;;;;;;;;;;;;;;5102564;28;20376;-75
2023/12/21 08:48:07;;;;;;;;;;;;;;;;;;5102694;28;19949;-77
2023/12/21 08:50:33;;;;;;;;;;;;;;;;;;5098661;28;19924;-77
2023/12/21 08:53:00;;;;;;;;;;;;;;;;;;5098722;28;19935;-76
2023/12/21 08:55:30;;;;;;;;;;;;;;;;;;5098888;28;19924;-76
2023/12/21 08:57:59;;;;;;;;;;;;;;;;;;5105182;28;19931;-76
2023/12/21 09:00:26;;;;;;;;;;;;;;;;;;5105653;28;19963;-79
2023/12/21 09:02:52;;;;;;;;;;;;;;;;;;5108962;28;19962;-78
2023/12/21 09:05:23;;;;;;;;;;;;;;;;;;5098219;28;19927;-76
2023/12/21 09:07:50;;;;;;;;;;;;;;;;;;5097551;28;19958;-81
2023/12/21 09:10:17;;;;;;;;;;;;;;;;;;5097258;28;19950;-82
2023/12/21 09:12:43;;;;;;;;;;;;;;;;;;5112879;28;19927;-80
2023/12/21 09:15:10;;;;;;;;;;;;;;;;;;5113725;28;20030;-79
2023/12/21 09:17:37;;;;;;;;;;;;;;;;;;5121387;27;19950;-80
2023/12/21 09:20:03;;;;;;;;;;;;;;;;;;5128326;27;19928;-81
2023/12/21 09:22:32;;;;;;;;;;;;;;;;;;5127220;27;19934;-81
2023/12/21 09:25:01;;;;;;;;;;;;;;;;;;5102587;28;20051;-82
2023/12/21 09:27:28;;;;;;;;;;;;;;;;;;5123700;27;19959;-79
2023/12/21 09:29:55;;;;;;;;;;;;;;;;;;5125655;27;20391;-79
2023/12/21 09:32:21;;;;;;;;;;;;;;;;;;5087204;27;19947;-79
2023/12/21 09:34:47;;;;;;;;;;;;;;;;;;5108814;28;19924;-78
2023/12/21 09:37:14;;;;;;;;;;;;;;;;;;5126011;27;20398;-81
2023/12/21 09:39:40;;;;;;;;;;;;;;;;;;5125830;27;19927;-81
2023/12/21 09:42:07;;;;;;;;;;;;;;;;;;5121701;27;19923;-79
2023/12/21 09:44:34;;;;;;;;;;;;;;;;;;5124833;27;19923;-82
2023/12/21 09:47:00;;;;;;;;;;;;;;;;;;5120994;27;19963;-78
2023/12/21 09:49:27;;;;;;;;;;;;;;;;;;5123582;27;19923;-80
2023/12/21 09:51:54;;;;;;;;;;;;;;;;;;5107825;27;19977;-81
2023/12/21 09:54:20;;;;;;;;;;;;;;;;;;5108598;27;20440;-80
2023/12/21 09:56:47;;;;;;;;;;;;;;;;;;5100592;28;19928;-81
2023/12/21 09:59:13;;;;;;;;;;;;;;;;;;5119817;27;19923;-83
2023/12/21 10:01:40;;;;;;;;;;;;;;;;;;5111771;28;19931;-79
2023/12/21 10:04:09;;;;;;;;;;;;;;;;;;5085371;28;19973;-80
2023/12/21 10:06:36;;;;;;;;;;;;;;;;;;5104479;28;20402;-84
2023/12/21 10:09:04;;;;;;;;;;;;;;;;;;5096552;28;20376;-80
2023/12/21 10:11:31;;;;;;;;;;;;;;;;;;5126281;27;19927;-79
2023/12/21 10:14:01;;;;;;;;;;;;;;;;;;5101125;28;19952;-80
2023/12/21 10:16:27;;;;;;;;;;;;;;;;;;5121048;27;20280;-85
2023/12/21 10:18:54;;;;;;;;;;;;;;;;;;5085205;27;19958;-82
2023/12/21 10:21:22;;;;;;;;;;;;;;;;;;5109712;27;19950;-81
2023/12/21 10:23:49;;;;;;;;;;;;;;;;;;5109377;28;19923;-78
2023/12/21 10:26:15;;;;;;;;;;;;;;;;;;5109431;28;20571;-79
2023/12/21 10:28:43;;;;;;;;;;;;;;;;;;5128066;27;19935;-79
2023/12/21 10:31:10;;;;;;;;;;;;;;;;;;5132105;27;19973;-79
2023/12/21 10:33:37;;;;;;;;;;;;;;;;;;5112542;27;20303;-77
2023/12/21 10:36:03;;;;;;;;;;;;;;;;;;5137068;27;19927;-80
2023/12/21 10:38:31;;;;;;;;;;;;;;;;;;5109742;28;19923;-77
2023/12/21 10:40:58;;;;;;;;;;;;;;;;;;5097408;27;20030;-79
2023/12/21 10:43:25;;;;;;;;;;;;;;;;;;5115394;27;19920;-76
2023/12/21 10:45:51;;;;;;;;;;;;;;;;;;5137505;27;20006;-78
2023/12/21 10:48:19;;;;;;;;;;;;;;;;;;5133059;27;19923;-76
2023/12/21 10:50:46;;;;;;;;;;;;;;;;;;5113066;27;19975;-78
2023/12/21 10:53:15;;;;;;;;;;;;;;;;;;5113222;27;20416;-78
2023/12/21 10:55:42;;;;;;;;;;;;;;;;;;5117550;27;19977;-76
2023/12/21 10:58:08;;;;;;;;;;;;;;;;;;5133348;27;19935;-79
2023/12/21 11:00:35;;;;;;;;;;;;;;;;;;5110816;28;19924;-80
2023/12/21 11:03:02;;;;;;;;;;;;;;;;;;5108118;28;19935;-78
2023/12/21 11:05:31;;;;;;;;;;;;;;;;;;5133313;27;19923;-81
2023/12/21 11:08:00;;;;;;;;;;;;;;;;;;5114946;27;19911;-78
2023/12/21 11:10:29;;;;;;;;;;;;;;;;;;5125361;27;19924;-80
2023/12/21 11:12:56;;;;;;;;;;;;;;;;;;5119611;28;19929;-78
2023/12/21 11:15:22;;;;;;;;;;;;;;;;;;5117690;28;19931;-79
2023/12/21 11:17:49;;;;;;;;;;;;;;;;;;5113100;28;19928;-78
2023/12/21 11:20:17;;;;;;;;;;;;;;;;;;5115935;28;19954;-79
2023/12/21 11:22:43;;;;;;;;;;;;;;;;;;5118479;28;20379;-80
2023/12/21 11:25:12;;;;;;;;;;;;;;;;;;5118353;28;20509;-77
2023/12/21 11:27:39;;;;;;;;;;;;;;;;;;5117019;28;19919;-79
2023/12/21 11:30:05;;;;;;;;;;;;;;;;;;5118202;28;19924;-77
2023/12/21 11:32:32;;;;;;;;;;;;;;;;;;5122744;28;20026;-81
2023/12/21 11:35:00;;;;;;;;;;;;;;;;;;5112545;28;19936;-78
2023/12/21 11:37:27;;;;;;;;;;;;;;;;;;5125931;28;19966;-80
2023/12/21 11:39:53;;;;;;;;;;;;;;;;;;5098875;28;19953;-81
2023/12/21 11:42:20;;;;;;;;;;;;;;;;;;5124150;28;20426;-78
2023/12/21 11:44:46;;;;;;;;;;;;;;;;;;5111408;28;20015;-79
2023/12/21 11:47:16;;;;;;;;;;;;;;;;;;5108658;28;19953;-77
2023/12/21 11:49:43;;;;;;;;;;;;;;;;;;5103170;28;19923;-77
2023/12/21 11:52:09;;;;;;;;;;;;;;;;;;5101774;28;20296;-77
2023/12/21 11:54:36;;;;;;;;;;;;;;;;;;5085943;28;19974;-81
2023/12/21 11:57:02;;;;;;;;;;;;;;;;;;5101136;28;20398;-78
2023/12/21 11:59:28;;;;;;;;;;;;;;;;;;5114085;28;19964;-78
2023/12/21 12:01:55;;;;;;;;;;;;;;;;;;5098368;28;20022;-79
2023/12/21 12:04:21;;;;;;;;;;;;;;;;;;5106219;27;19931;-79
2023/12/21 12:06:50;;;;;;;;;;;;;;;;;;5125765;27;19930;-79
2023/12/21 12:09:16;;;;;;;;;;;;;;;;;;5104674;27;19934;-81
2023/12/21 12:11:43;;;;;;;;;;;;;;;;;;5104732;27;20359;-80
2023/12/21 12:14:10;;;;;;;;;;;;;;;;;;5103779;27;19927;-77
2023/12/21 12:16:37;;;;;;;;;;;;;;;;;;5087598;27;19971;-78
2023/12/21 12:19:03;;;;;;;;;;;;;;;;;;5106221;28;20344;-81
2023/12/21 12:21:30;;;;;;;;;;;;;;;;;;5125931;27;19971;-81
2023/12/21 12:23:56;;;;;;;;;;;;;;;;;;5123531;27;19928;-76
2023/12/21 12:26:23;;;;;;;;;;;;;;;;;;5093185;27;19928;-79
2023/12/21 12:28:50;;;;;;;;;;;;;;;;;;5127301;27;19936;-75
2023/12/21 12:31:17;;;;;;;;;;;;;;;;;;5092646;28;20072;-80
2023/12/21 12:33:43;;;;;;;;;;;;;;;;;;5106504;27;19924;-76
2023/12/21 12:36:10;;;;;;;;;;;;;;;;;;5114662;27;20325;-78
2023/12/21 12:38:36;;;;;;;;;;;;;;;;;;5092273;27;19923;-78
2023/12/21 12:41:03;;;;;;;;;;;;;;;;;;5118810;27;19934;-78
2023/12/21 12:43:34;;;;;;;;;;;;;;;;;;5113544;27;19941;-78
2023/12/21 12:46:01;;;;;;;;;;;;;;;;;;5112582;28;20338;-77
2023/12/21 12:48:28;;;;;;;;;;;;;;;;;;5127230;27;19932;-79
2023/12/21 12:50:55;;;;;;;;;;;;;;;;;;5103009;27;19942;-80
2023/12/21 12:53:22;;;;;;;;;;;;;;;;;;5105445;28;20042;-78
2023/12/21 12:55:55;;;;;;;;;;;;;;;;;;5091979;28;19970;-78
2023/12/21 12:58:22;;;;;;;;;;;;;;;;;;5102767;27;19927;-77
2023/12/21 13:00:49;;;;;;;;;;;;;;;;;;5090498;27;19930;-79
2023/12/21 13:03:15;;;;;;;;;;;;;;;;;;5083723;28;19924;-80
2023/12/21 13:05:41;;;;;;;;;;;;;;;;;;5090675;27;19939;-79
2023/12/21 13:08:08;;;;;;;;;;;;;;;;;;5116406;28;19927;-80
2023/12/21 13:10:34;;;;;;;;;;;;;;;;;;5102671;28;19973;-80
2023/12/21 13:13:01;;;;;;;;;;;;;;;;;;5123267;27;19924;-79
2023/12/21 13:15:27;;;;;;;;;;;;;;;;;;5101701;27;20450;-80
2023/12/21 13:17:54;;;;;;;;;;;;;;;;;;5122490;27;19973;-80
2023/12/21 13:20:20;;;;;;;;;;;;;;;;;;5102107;27;19967;-80
2023/12/21 13:22:47;;;;;;;;;;;;;;;;;;5124700;27;19963;-80
2023/12/21 13:25:16;;;;;;;;;;;;;;;;;;5103222;28;19932;-78
2023/12/21 13:27:42;;;;;;;;;;;;;;;;;;5104264;27;20520;-80
2023/12/21 13:30:10;;;;;;;;;;;;;;;;;;5119658;27;19966;-81
2023/12/21 13:32:37;;;;;;;;;;;;;;;;;;5122213;27;20407;-81
2023/12/21 13:35:03;;;;;;;;;;;;;;;;;;5119434;27;19984;-82
2023/12/21 13:37:30;;;;;;;;;;;;;;;;;;5093983;28;19924;-82
2023/12/21 13:39:56;;;;;;;;;;;;;;;;;;5124197;27;20330;-82
2023/12/21 13:42:22;;;;;;;;;;;;;;;;;;5099826;27;19924;-84
2023/12/21 13:44:49;;;;;;;;;;;;;;;;;;5103111;27;19980;-82
2023/12/21 13:47:17;;;;;;;;;;;;;;;;;;5121483;27;19927;-81
2023/12/21 13:49:43;;;;;;;;;;;;;;;;;;5098370;28;19935;-80
2023/12/21 13:52:10;;;;;;;;;;;;;;;;;;5098158;27;19924;-82
2023/12/21 13:54:38;;;;;;;;;;;;;;;;;;5104356;27;19923;-81
2023/12/21 13:57:04;;;;;;;;;;;;;;;;;;5109399;27;20018;-80
2023/12/21 13:59:36;;;;;;;;;;;;;;;;;;5123401;27;19928;-80
2023/12/21 14:02:03;;;;;;;;;;;;;;;;;;5102235;28;19959;-82
2023/12/21 14:04:29;;;;;;;;;;;;;;;;;;5105666;28;19928;-80
2023/12/21 14:06:56;;;;;;;;;;;;;;;;;;5125850;27;19927;-82
2023/12/21 14:09:24;;;;;;;;;;;;;;;;;;5110950;27;20457;-81
2023/12/21 14:11:50;;;;;;;;;;;;;;;;;;5100298;28;19927;-79
2023/12/21 14:14:17;;;;;;;;;;;;;;;;;;5101689;27;19923;-81
2023/12/21 14:16:43;;;;;;;;;;;;;;;;;;5090607;27;19923;-83
2023/12/21 14:19:11;;;;;;;;;;;;;;;;;;5105276;27;20030;-80
2023/12/21 14:21:37;;;;;;;;;;;;;;;;;;5100796;27;19967;-80
2023/12/21 14:24:04;;;;;;;;;;;;;;;;;;5101490;27;19927;-80
2023/12/21 14:26:30;;;;;;;;;;;;;;;;;;5105701;28;19963;-80
2023/12/21 14:28:57;;;;;;;;;;;;;;;;;;5120906;27;19955;-81
2023/12/21 14:31:23;;;;;;;;;;;;;;;;;;5104062;27;19973;-80
2023/12/21 14:33:50;;;;;;;;;;;;;;;;;;5099933;28;20022;-78
2023/12/21 14:36:16;;;;;;;;;;;;;;;;;;5084999;28;19924;-81
2023/12/21 14:38:43;;;;;;;;;;;;;;;;;;5119119;27;19928;-78
2023/12/21 14:41:10;;;;;;;;;;;;;;;;;;5097591;27;19924;-78
2023/12/21 14:43:37;;;;;;;;;;;;;;;;;;5098207;28;19928;-81
2023/12/21 14:46:03;;;;;;;;;;;;;;;;;;5122188;27;19924;-80
2023/12/21 14:48:30;;;;;;;;;;;;;;;;;;5123405;27;19949;-75
2023/12/21 14:50:57;;;;;;;;;;;;;;;;;;5088822;27;19984;-78
2023/12/21 14:53:23;;;;;;;;;;;;;;;;;;5094536;28;20415;-76
2023/12/21 14:55:49;;;;;;;;;;;;;;;;;;5096303;27;19928;-76
2023/12/21 14:58:16;;;;;;;;;;;;;;;;;;5097003;27;20242;-78
2023/12/21 15:00:42;;;;;;;;;;;;;;;;;;5088158;28;19953;-78
2023/12/21 15:03:10;;;;;;;;;;;;;;;;;;5096247;27;19957;-78
2023/12/21 15:05:36;;;;;;;;;;;;;;;;;;5098046;28;19930;-77
2023/12/21 15:08:03;;;;;;;;;;;;;;;;;;5103681;28;20335;-79
2023/12/21 15:10:31;;;;;;;;;;;;;;;;;;5103064;27;19928;-76
2023/12/21 15:12:58;;;;;;;;;;;;;;;;;;5120329;28;20276;-80
2023/12/21 15:15:24;;;;;;;;;;;;;;;;;;5095771;28;20295;-78
2023/12/21 15:17:51;;;;;;;;;;;;;;;;;;5100273;28;20283;-79
2023/12/21 15:20:19;;;;;;;;;;;;;;;;;;5119681;28;19928;-78
2023/12/21 15:22:45;;;;;;;;;;;;;;;;;;5095755;28;19932;-80
2023/12/21 15:25:12;;;;;;;;;;;;;;;;;;5098445;28;20403;-79
2023/12/21 15:27:39;;;;;;;;;;;;;;;;;;5101803;28;19924;-77
2023/12/21 15:30:05;;;;;;;;;;;;;;;;;;5102605;28;20031;-78
2023/12/21 15:32:32;;;;;;;;;;;;;;;;;;5102896;28;19942;-79
2023/12/21 15:34:58;;;;;;;;;;;;;;;;;;5119143;28;20018;-76
2023/12/21 15:37:25;;;;;;;;;;;;;;;;;;5118012;27;20005;-78
2023/12/21 15:39:51;;;;;;;;;;;;;;;;;;5102983;27;19923;-77
2023/12/21 15:42:18;;;;;;;;;;;;;;;;;;5124565;27;20288;-77
2023/12/21 15:44:44;;;;;;;;;;;;;;;;;;5102673;27;20027;-81
2023/12/21 15:47:10;;;;;;;;;;;;;;;;;;5087821;27;19966;-81
2023/12/21 15:49:37;;;;;;;;;;;;;;;;;;5126397;27;20060;-79
2023/12/21 15:52:03;;;;;;;;;;;;;;;;;;5103470;28;20364;-81
2023/12/21 15:54:32;;;;;;;;;;;;;;;;;;5122466;27;20072;-78
2023/12/21 15:56:59;;;;;;;;;;;;;;;;;;5122644;27;19924;-81
2023/12/21 15:59:25;;;;;;;;;;;;;;;;;;5121102;27;19930;-80
2023/12/21 16:01:52;;;;;;;;;;;;;;;;;;5101763;27;20398;-81
2023/12/21 16:04:18;;;;;;;;;;;;;;;;;;5119816;27;19966;-80
2023/12/21 16:06:45;;;;;;;;;;;;;;;;;;5101062;28;19931;-78
2023/12/21 16:09:11;;;;;;;;;;;;;;;;;;5105358;28;20010;-77
2023/12/21 16:11:40;;;;;;;;;;;;;;;;;;5121746;27;19981;-80
2023/12/21 16:14:06;;;;;;;;;;;;;;;;;;5098134;27;20379;-77
2023/12/21 16:16:33;;;;;;;;;;;;;;;;;;5128274;27;19927;-77
2023/12/21 16:18:59;;;;;;;;;;;;;;;;;;5111663;27;20394;-77
2023/12/21 16:21:26;;;;;;;;;;;;;;;;;;5106788;27;20423;-78
2023/12/21 16:23:52;;;;;;;;;;;;;;;;;;5105247;28;19927;-76
2023/12/21 16:26:19;;;;;;;;;;;;;;;;;;5109916;27;20387;-78
2023/12/21 16:28:46;;;;;;;;;;;;;;;;;;5104211;28;20315;-76
2023/12/21 16:31:12;;;;;;;;;;;;;;;;;;5108615;27;19977;-76
2023/12/21 16:33:38;;;;;;;;;;;;;;;;;;5127659;27;19967;-77
2023/12/21 16:36:05;;;;;;;;;;;;;;;;;;5134019;27;19931;-81
2023/12/21 16:38:35;;;;;;;;;;;;;;;;;;5127952;27;20478;-76
2023/12/21 16:41:06;;;;;;;;;;;;;;;;;;5117355;27;19924;-76
2023/12/21 16:43:33;;;;;;;;;;;;;;;;;;5105065;28;19924;-81